createdAt,value
2019-03-23T00:01:34.673Z,9
2019-03-23T00:06:40.000Z,9
2019-03-23T00:11:44.015Z,9
2019-03-23T00:16:49.557Z,9.1
2019-03-23T00:21:55.012Z,9.1
2019-03-23T00:27:00.543Z,9.2
2019-03-23T00:32:06.156Z,9.1
2019-03-23T00:37:11.353Z,9.1
2019-03-23T00:42:16.643Z,9.1
2019-03-23T00:47:21.632Z,9
2019-03-23T00:52:27.396Z,8.9
2019-03-23T00:57:31.288Z,8.9
2019-03-23T01:02:35.089Z,8.9
2019-03-23T01:07:40.360Z,8.9
2019-03-23T01:12:44.210Z,8.8
2019-03-23T01:17:49.183Z,8.8
2019-03-23T01:22:54.318Z,8.7
2019-03-23T01:27:59.667Z,8.8
2019-03-23T01:33:05.017Z,8.7
2019-03-23T01:38:10.210Z,8.7
2019-03-23T01:43:15.544Z,8.7
2019-03-23T01:48:20.529Z,8.7
2019-03-23T01:53:25.918Z,8.7
2019-03-23T01:58:31.205Z,8.6
2019-03-23T02:03:36.281Z,8.6
2019-03-23T02:08:41.412Z,8.6
2019-03-23T02:13:46.622Z,8.5
2019-03-23T02:18:51.821Z,8.5
2019-03-23T02:23:55.874Z,8.5
2019-03-23T02:29:01.365Z,8.4
2019-03-23T02:34:06.766Z,8.4
2019-03-23T02:39:11.973Z,8.4
2019-03-23T02:44:17.665Z,8.4
2019-03-23T02:49:22.824Z,8.3
2019-03-23T02:54:28.196Z,8.3
2019-03-23T02:59:33.415Z,8.3
2019-03-23T03:04:37.226Z,8.3
2019-03-23T03:09:42.505Z,8.2
2019-03-23T03:14:48.131Z,8.2
2019-03-23T03:19:53.439Z,8.1
2019-03-23T03:24:58.703Z,8
2019-03-23T03:30:03.857Z,8
2019-03-23T03:35:09.765Z,7.8
2019-03-23T03:40:13.655Z,7.8
2019-03-23T03:45:18.965Z,7.7
2019-03-23T03:50:24.408Z,7.6
2019-03-23T03:55:30.067Z,7.6
2019-03-23T04:00:35.630Z,7.5
2019-03-23T04:05:41.090Z,7.4
2019-03-23T04:10:46.473Z,7.2
2019-03-23T04:15:51.706Z,7.2
2019-03-23T04:20:57.598Z,7.1
2019-03-23T04:26:01.486Z,7
2019-03-23T04:31:06.601Z,7
2019-03-23T04:36:12.020Z,7
2019-03-23T04:41:17.915Z,6.9
2019-03-23T04:46:23.067Z,6.9
2019-03-23T04:51:27.042Z,6.9
2019-03-23T04:56:32.432Z,6.9
2019-03-23T05:01:37.598Z,6.9
2019-03-23T05:06:43.604Z,6.9
2019-03-23T05:11:48.679Z,6.9
2019-03-23T05:16:54.182Z,7
2019-03-23T05:21:59.256Z,7.2
2019-03-23T05:27:04.588Z,7.3
2019-03-23T05:32:10.305Z,7.6
2019-03-23T05:37:14.249Z,7.6
2019-03-23T05:42:20.136Z,8.1
2019-03-23T05:47:23.841Z,8
2019-03-23T05:52:29.017Z,8.3
2019-03-23T05:57:34.315Z,8.6
2019-03-23T06:02:40.671Z,9.5
2019-03-23T06:07:45.880Z,9.5
2019-03-23T06:12:50.077Z,10
2019-03-23T06:17:53.909Z,10.4
2019-03-23T06:22:59.119Z,10.9
2019-03-23T06:28:04.791Z,11.4
2019-03-23T06:33:10.169Z,11.8
2019-03-23T06:38:18.146Z,12.8
2019-03-23T06:43:23.342Z,12.8
2019-03-23T06:48:28.900Z,13.2
2019-03-23T06:53:34.011Z,13.7
2019-03-23T06:58:40.589Z,14.7
2019-03-23T07:03:45.793Z,14.6
2019-03-23T07:08:50.911Z,15
2019-03-23T07:13:54.729Z,15.6
2019-03-23T07:18:59.761Z,16.1
2019-03-23T07:24:05.142Z,16.7
2019-03-23T07:29:10.504Z,17.3
2019-03-23T07:34:16.199Z,18
2019-03-23T07:39:31.501Z,18.9
2019-03-23T07:44:26.905Z,18.8
2019-03-23T07:49:31.800Z,19.9
2019-03-23T07:54:37.366Z,24.4
2019-03-23T07:59:42.705Z,24.3
2019-03-23T08:04:48.069Z,26.7
2019-03-23T08:09:53.401Z,28.6
2019-03-23T08:14:58.761Z,29
2019-03-23T08:16:17.856Z,28.4
2019-03-23T08:21:22.728Z,28.8
2019-03-23T08:26:31.555Z,28.9
2019-03-23T08:31:35.317Z,28.9
2019-03-23T08:36:40.455Z,28.1
2019-03-23T08:41:44.548Z,27
2019-03-23T08:46:48.515Z,26
2019-03-23T08:51:53.530Z,25.6
2019-03-23T08:56:59.086Z,26.4
2019-03-23T09:02:04.738Z,26.7
2019-03-23T09:07:10.465Z,26.2
2019-03-23T09:12:15.920Z,26.1
2019-03-23T09:17:19.590Z,26.1
2019-03-23T09:22:19.655Z,26.8
2019-03-23T09:27:24.849Z,27.9
2019-03-23T09:32:28.934Z,28.7
2019-03-23T09:37:32.441Z,29
2019-03-23T09:42:37.650Z,28.7
2019-03-23T09:47:43.167Z,29.9
2019-03-23T09:52:48.533Z,29.9
2019-03-23T09:57:52.951Z,30.2
2019-03-23T10:02:57.044Z,30.1
2019-03-23T10:08:02.340Z,30.1
2019-03-23T10:13:07.530Z,29.9
2019-03-23T10:18:12.561Z,30.3
2019-03-23T10:23:17.739Z,31.1
2019-03-23T10:28:22.917Z,31.2
2019-03-23T10:33:28.208Z,30.9
2019-03-23T10:38:33.407Z,31
2019-03-23T10:43:40.869Z,31.5
2019-03-23T10:48:46.785Z,32.2
2019-03-23T10:53:52.044Z,32.1
2019-03-23T10:58:57.510Z,31.9
2019-03-23T11:04:02.616Z,32.2
2019-03-23T11:09:12.607Z,31.4
2019-03-23T11:14:16.519Z,32
2019-03-23T11:19:21.568Z,32.6
2019-03-23T11:24:26.966Z,32.7
2019-03-23T11:29:32.544Z,34.9
2019-03-23T11:34:37.758Z,34.8
2019-03-23T11:39:43.008Z,35
2019-03-23T11:44:49.048Z,35.6
2019-03-23T11:49:54.634Z,35.5
2019-03-23T11:55:00.189Z,35.1
2019-03-23T12:00:05.344Z,34.6
2019-03-23T12:05:10.692Z,33.9
2019-03-23T12:10:16.088Z,34.1
2019-03-23T12:15:21.552Z,34.2
2019-03-23T12:20:26.719Z,34.8
2019-03-23T12:25:32.270Z,36.7
2019-03-23T12:30:37.526Z,35.5
2019-03-23T12:35:43.059Z,35
2019-03-23T12:40:46.692Z,34.8
2019-03-23T12:45:52.266Z,36.4
2019-03-23T12:50:57.895Z,36.4
2019-03-23T12:56:01.564Z,35.9
2019-03-23T13:01:05.238Z,35.7
2019-03-23T13:06:10.499Z,34.5
2019-03-23T13:11:36.093Z,30.7
2019-03-23T13:16:22.145Z,29.6
2019-03-23T13:21:26.067Z,29.5
2019-03-23T13:26:31.437Z,27.6
2019-03-23T13:31:37.520Z,25.1
2019-03-23T13:36:43.283Z,25
2019-03-23T13:41:48.299Z,24.4
2019-03-23T13:46:53.650Z,23.8
2019-03-23T13:51:58.772Z,23.1
2019-03-23T13:57:07.794Z,22.6
2019-03-23T14:02:12.943Z,22.1
2019-03-23T14:07:18.505Z,21.6
2019-03-23T14:12:23.664Z,21.5
2019-03-23T14:17:29.342Z,21.3
2019-03-23T14:22:34.548Z,21.1
2019-03-23T14:27:39.668Z,20.9
2019-03-23T14:32:44.966Z,20.7
2019-03-23T14:37:50.333Z,20.6
2019-03-23T14:42:55.571Z,20.3
2019-03-23T14:48:01.209Z,20.2
2019-03-23T14:53:06.416Z,20.1
2019-03-23T14:58:11.621Z,20.1
2019-03-23T15:03:15.939Z,19.9
2019-03-23T15:08:21.632Z,19.9
2019-03-23T15:13:26.699Z,19.9
2019-03-23T15:18:31.929Z,19.8
2019-03-23T15:23:37.369Z,19.7
2019-03-23T15:33:47.810Z,19.2
2019-03-23T15:38:53.157Z,19.2
2019-03-23T15:43:58.237Z,19.1
2019-03-23T15:49:03.553Z,19.1
2019-03-23T15:54:08.609Z,19.1
2019-03-23T15:59:13.731Z,19
2019-03-23T16:04:18.937Z,18.9
2019-03-23T16:09:24.040Z,18.8
2019-03-23T16:14:29.425Z,18.7
2019-03-23T16:19:34.768Z,18.6
2019-03-23T16:24:39.885Z,18.5
2019-03-23T16:29:46.193Z,18.4
2019-03-23T16:34:51.497Z,18.3
2019-03-23T16:39:56.874Z,18.1
2019-03-23T16:45:01.939Z,18
2019-03-23T16:50:11.826Z,17.7
2019-03-23T16:55:16.820Z,17.7
2019-03-23T17:00:20.456Z,17.5
2019-03-23T17:05:25.544Z,17.2
2019-03-23T17:10:30.740Z,17
2019-03-23T17:15:35.883Z,16.8
2019-03-23T17:20:41.878Z,16.3
2019-03-23T17:25:47.108Z,16.3
2019-03-23T17:30:52.260Z,16.1
2019-03-23T17:35:57.340Z,15.9
2019-03-23T17:41:02.626Z,15.7
2019-03-23T17:46:07.554Z,15.6
2019-03-23T17:51:12.849Z,15.4
2019-03-23T17:56:18.122Z,15.3
2019-03-23T18:01:23.441Z,15.1
2019-03-23T18:06:28.969Z,14.8
2019-03-23T18:11:34.301Z,14.8
2019-03-23T18:16:39.643Z,14.7
2019-03-23T18:21:45.112Z,14.7
2019-03-23T18:26:51.454Z,14.6
2019-03-23T18:31:56.616Z,14.6
2019-03-23T18:37:01.728Z,14.6
2019-03-23T18:42:05.526Z,14.5
2019-03-23T18:47:10.835Z,14.4
2019-03-23T18:52:15.976Z,14.3
2019-03-23T18:57:21.310Z,14.2
2019-03-23T19:02:26.539Z,14.1
2019-03-23T19:07:31.865Z,14
2019-03-23T19:12:36.974Z,13.9
2019-03-23T19:17:40.612Z,13.8
2019-03-23T19:22:45.674Z,13.7
2019-03-23T19:27:51.178Z,13.6
2019-03-23T19:32:56.410Z,13.6
2019-03-23T19:38:00.047Z,13.6
2019-03-23T19:43:05.472Z,13.5
2019-03-23T19:48:10.946Z,13.5
2019-03-23T19:53:16.154Z,13.4
2019-03-23T19:58:21.669Z,13.3
2019-03-23T20:03:27.322Z,13.2
2019-03-23T20:08:32.694Z,13.1
2019-03-23T20:13:38.230Z,13
2019-03-23T20:18:43.569Z,13
2019-03-23T20:23:51.120Z,12.9
2019-03-23T20:28:56.388Z,12.8
2019-03-23T20:34:02.307Z,12.7
2019-03-23T20:39:05.796Z,12.7
2019-03-23T20:44:11.618Z,12.6
2019-03-23T20:49:16.782Z,12.6
2019-03-23T20:54:22.247Z,12.5
2019-03-23T20:59:26.075Z,12.4
2019-03-23T21:04:26.530Z,12.2
2019-03-23T21:09:31.602Z,12.1
2019-03-23T21:19:35.856Z,11.9
2019-03-23T21:24:39.640Z,11.8
2019-03-23T21:29:44.669Z,11.7
2019-03-23T21:34:48.497Z,11.6
2019-03-23T21:39:52.466Z,11.6
2019-03-23T21:44:57.699Z,11.6
2019-03-23T21:50:02.864Z,11.4
2019-03-23T21:55:08.957Z,11.3
2019-03-23T22:00:12.805Z,11.2
2019-03-23T22:05:18.115Z,11.2
2019-03-23T22:10:23.579Z,11.2
2019-03-23T22:15:28.768Z,11.1
2019-03-23T22:20:34.073Z,11
2019-03-23T22:25:39.344Z,10.9
2019-03-23T22:30:44.419Z,10.7
2019-03-23T22:35:49.756Z,10.7
2019-03-23T22:40:54.961Z,10.6
2019-03-23T22:46:00.629Z,10.5
2019-03-23T22:51:05.837Z,10.5
2019-03-23T22:56:11.217Z,10.4
2019-03-23T23:01:16.267Z,10.3
2019-03-23T23:06:21.729Z,10.3
2019-03-23T23:11:27.084Z,10.2
2019-03-23T23:16:32.327Z,10.2
2019-03-23T23:21:36.150Z,10.1
2019-03-23T23:26:41.360Z,10.1
2019-03-23T23:31:46.668Z,10
2019-03-23T23:36:52.012Z,10
2019-03-23T23:41:57.597Z,10
2019-03-23T23:47:02.970Z,10
2019-03-23T23:52:08.202Z,9.9
2019-03-23T23:57:11.900Z,9.9
